Time;durP1;ratioP1;P1;durP2;ratioP2;P2;SDS_P1;SDS_P2;PMS_P1;PMS_P2;Temp;Humidity;BMP_temperature;BMP_pressure;BME280_temperature;BME280_humidity;BME280_pressure;Samples;Min_cycle;Max_cycle;Signal;HPM_P1;HPM_P2
2023/05/28 00:00:50;;;;;;;7.00;4.03;;;16.10;60.20;;;;;;5068779;28;20157;-70
2023/05/28 00:03:17;;;;;;;9.15;4.28;;;16.00;60.60;;;;;;5068374;28;20032;-70
2023/05/28 00:05:44;;;;;;;7.53;4.03;;;15.90;60.90;;;;;;5067311;28;20463;-70
2023/05/28 00:08:09;;;;;;;7.68;4.22;;;15.90;61.40;;;;;;5071256;28;20017;-70
2023/05/28 00:10:35;;;;;;;8.38;4.15;;;15.80;61.90;;;;;;5073080;28;20012;-70
2023/05/28 00:13:01;;;;;;;10.43;4.93;;;15.70;62.20;;;;;;5070148;28;20102;-70
2023/05/28 00:15:27;;;;;;;8.30;4.72;;;15.60;63.30;;;;;;5074245;28;20386;-70
2023/05/28 00:17:53;;;;;;;8.93;5.18;;;15.50;63.90;;;;;;5074926;28;20028;-71
2023/05/28 00:20:21;;;;;;;9.52;4.75;;;15.50;64.50;;;;;;5076378;28;20047;-70
2023/05/28 00:22:47;;;;;;;10.30;4.57;;;15.40;64.80;;;;;;5069844;28;20021;-70
2023/05/28 00:25:13;;;;;;;10.48;4.60;;;15.30;65.20;;;;;;5072226;28;20433;-70
2023/05/28 00:27:39;;;;;;;9.98;4.40;;;15.30;65.50;;;;;;5074319;28;20107;-70
2023/05/28 00:30:05;;;;;;;8.73;4.35;;;15.30;65.80;;;;;;5077041;28;20051;-70
2023/05/28 00:32:30;;;;;;;8.52;4.10;;;15.20;66.10;;;;;;5063978;28;20013;-71
2023/05/28 00:34:56;;;;;;;9.05;4.53;;;15.30;66.00;;;;;;5074424;28;20363;-70
2023/05/28 00:37:21;;;;;;;11.50;4.68;;;15.30;66.20;;;;;;5083422;28;20038;-71
2023/05/28 00:39:47;;;;;;;9.60;4.07;;;15.30;66.70;;;;;;5075439;28;20418;-71
2023/05/28 00:42:13;;;;;;;10.13;4.13;;;15.30;66.70;;;;;;5080777;28;20028;-69
2023/05/28 00:44:39;;;;;;;10.73;4.47;;;15.30;66.80;;;;;;5097139;28;20044;-70
2023/05/28 00:47:05;;;;;;;9.98;4.45;;;15.30;67.20;;;;;;5071334;28;20032;-71
2023/05/28 00:49:32;;;;;;;9.25;4.35;;;15.30;67.50;;;;;;5100533;27;20111;-71
2023/05/28 00:51:59;;;;;;;11.38;4.50;;;15.30;67.90;;;;;;5068921;28;20024;-71
2023/05/28 00:54:25;;;;;;;10.93;4.82;;;15.30;68.30;;;;;;5073642;28;20024;-72
2023/05/28 00:56:53;;;;;;;13.13;5.13;;;15.20;68.90;;;;;;5078553;28;20028;-72
2023/05/28 00:59:18;;;;;;;9.65;4.93;;;15.20;69.10;;;;;;5072414;28;20035;-71
2023/05/28 01:01:44;;;;;;;10.02;5.00;;;15.10;69.50;;;;;;5069057;28;20116;-71
2023/05/28 01:04:10;;;;;;;12.88;4.97;;;15.10;69.90;;;;;;5080397;28;20028;-71
2023/05/28 01:06:39;;;;;;;12.52;5.00;;;15.00;70.30;;;;;;5069773;28;20016;-70
2023/05/28 01:09:08;;;;;;;10.15;4.47;;;15.00;70.60;;;;;;5070654;28;20025;-71
2023/05/28 01:11:35;;;;;;;10.75;4.85;;;15.00;70.80;;;;;;5078092;28;20087;-71
2023/05/28 01:14:01;;;;;;;11.77;5.03;;;14.90;71.10;;;;;;5074485;28;20024;-70
2023/05/28 01:16:29;;;;;;;11.40;4.57;;;14.90;71.30;;;;;;5076944;28;20028;-70
2023/05/28 01:18:56;;;;;;;13.23;5.05;;;14.90;71.50;;;;;;5074844;28;20036;-71
2023/05/28 01:21:27;;;;;;;10.52;4.93;;;14.90;71.80;;;;;;5081695;28;20055;-71
2023/05/28 01:23:54;;;;;;;9.95;5.10;;;14.90;72.20;;;;;;5073680;28;20455;-72
2023/05/28 01:26:19;;;;;;;10.70;4.97;;;14.80;72.30;;;;;;5070311;28;20032;-72
2023/05/28 01:28:49;;;;;;;11.23;4.80;;;14.80;72.50;;;;;;5081052;28;20024;-72
2023/05/28 01:31:15;;;;;;;9.90;4.70;;;14.80;73.00;;;;;;5069146;28;20391;-72
2023/05/28 01:33:42;;;;;;;11.90;5.20;;;14.70;73.10;;;;;;5097893;27;20036;-72
2023/05/28 01:36:33;;;;;;;13.25;5.72;;;14.70;73.40;;;;;;5077616;28;20077;-72
2023/05/28 01:39:02;;;;;;;11.10;4.90;;;14.70;73.60;;;;;;5079872;28;20138;-71
2023/05/28 01:41:29;;;;;;;11.45;4.60;;;14.70;73.70;;;;;;5070173;28;20074;-71
2023/05/28 01:43:55;;;;;;;12.10;5.35;;;14.70;73.80;;;;;;5078997;28;20024;-72
2023/05/28 01:46:22;;;;;;;13.27;4.78;;;14.70;73.90;;;;;;5070734;28;20036;-71
2023/05/28 01:48:48;;;;;;;9.88;4.60;;;14.70;73.90;;;;;;5072051;28;20048;-71
2023/05/28 01:51:20;;;;;;;12.77;5.43;;;14.70;74.90;;;;;;5072659;28;20017;-71
2023/05/28 01:53:46;;;;;;;12.18;5.30;;;14.70;74.40;;;;;;5075049;28;20025;-70
2023/05/28 01:56:11;;;;;;;11.57;5.15;;;14.60;74.40;;;;;;5077139;28;20022;-70
2023/05/28 01:58:37;;;;;;;13.15;5.40;;;14.60;74.60;;;;;;5079769;28;20494;-71
2023/05/28 02:01:14;;;;;;;11.95;5.20;;;14.60;74.70;;;;;;5074700;28;20020;-71
2023/05/28 02:03:40;;;;;;;11.50;4.90;;;14.60;75.00;;;;;;5067903;28;20024;-70
2023/05/28 02:06:05;;;;;;;9.98;4.97;;;14.50;75.10;;;;;;5078324;28;20545;-70
2023/05/28 02:08:31;;;;;;;9.55;5.13;;;14.50;75.00;;;;;;5078079;28;20016;-70
2023/05/28 02:10:57;;;;;;;8.95;4.90;;;14.60;75.00;;;;;;5079742;28;20024;-71
2023/05/28 02:13:22;;;;;;;9.88;4.63;;;14.50;75.00;;;;;;5081285;28;20021;-71
2023/05/28 02:15:48;;;;;;;10.27;4.60;;;14.50;74.80;;;;;;5069623;28;20037;-71
2023/05/28 02:18:14;;;;;;;8.50;4.28;;;14.50;74.80;;;;;;5068269;28;20395;-70
2023/05/28 02:20:41;;;;;;;10.00;4.60;;;14.50;74.60;;;;;;5071356;28;20445;-71
2023/05/28 02:23:07;;;;;;;12.38;5.07;;;14.60;74.70;;;;;;5079037;28;20032;-71
2023/05/28 02:25:33;;;;;;;10.98;5.40;;;14.50;74.80;;;;;;5080894;28;20039;-71
2023/05/28 02:27:58;;;;;;;10.00;4.90;;;14.40;75.10;;;;;;5068249;28;20021;-71
2023/05/28 02:30:24;;;;;;;10.95;4.97;;;14.40;75.20;;;;;;5072179;28;20016;-70
2023/05/28 02:32:50;;;;;;;9.57;5.35;;;14.40;75.30;;;;;;5067830;28;20116;-71
2023/05/28 02:35:16;;;;;;;13.05;5.88;;;14.30;75.50;;;;;;5068122;28;20040;-71
2023/05/28 02:37:41;;;;;;;10.93;5.05;;;14.30;76.00;;;;;;5077429;28;20281;-71
2023/05/28 02:40:09;;;;;;;10.50;4.90;;;14.20;76.20;;;;;;5079129;28;20115;-72
2023/05/28 02:42:35;;;;;;;10.50;5.25;;;14.10;76.40;;;;;;5079853;28;20024;-72
2023/05/28 02:45:00;;;;;;;10.35;5.07;;;14.00;76.70;;;;;;5071747;28;20032;-71
2023/05/28 02:47:26;;;;;;;10.77;4.90;;;14.00;76.80;;;;;;5079495;28;20020;-72
2023/05/28 02:49:51;;;;;;;10.88;5.50;;;13.90;76.90;;;;;;5075237;28;20016;-72
2023/05/28 02:52:17;;;;;;;9.25;5.13;;;13.90;77.10;;;;;;5081579;28;20020;-72
2023/05/28 02:54:42;;;;;;;13.32;5.90;;;13.90;77.20;;;;;;5071749;28;20022;-72
2023/05/28 02:57:08;;;;;;;12.02;5.53;;;13.90;77.50;;;;;;5071940;28;20038;-73
2023/05/28 02:59:34;;;;;;;10.25;5.57;;;13.90;77.60;;;;;;5071502;28;20054;-73
2023/05/28 03:02:00;;;;;;;11.63;5.57;;;13.90;77.70;;;;;;5075519;28;20035;-72
2023/05/28 03:04:25;;;;;;;12.23;5.53;;;13.90;78.20;;;;;;5068364;28;20025;-73
2023/05/28 03:06:51;;;;;;;11.27;5.80;;;13.90;78.20;;;;;;5072548;28;20040;-73
2023/05/28 03:09:17;;;;;;;13.75;5.65;;;13.90;78.30;;;;;;5081202;28;20028;-73
2023/05/28 03:11:42;;;;;;;11.13;5.00;;;13.90;78.40;;;;;;5083345;28;20491;-73
2023/05/28 03:14:08;;;;;;;9.55;5.25;;;13.80;78.20;;;;;;5071559;28;20101;-73
2023/05/28 03:16:36;;;;;;;14.23;6.22;;;13.80;78.30;;;;;;5071823;28;20020;-73
2023/05/28 03:19:02;;;;;;;10.73;5.88;;;13.80;78.40;;;;;;5069809;28;20020;-73
2023/05/28 03:21:28;;;;;;;10.88;5.20;;;13.70;78.70;;;;;;5071959;28;20688;-73
2023/05/28 03:23:53;;;;;;;11.02;5.55;;;13.70;78.90;;;;;;5079495;28;20013;-72
2023/05/28 03:26:19;;;;;;;11.05;5.70;;;13.70;79.10;;;;;;5073604;28;20021;-73
2023/05/28 03:28:44;;;;;;;11.80;6.10;;;13.60;79.10;;;;;;5070924;28;20523;-73
2023/05/28 03:31:12;;;;;;;13.88;6.45;;;13.60;79.30;;;;;;5075260;28;20025;-73
2023/05/28 03:33:38;;;;;;;12.38;6.25;;;13.60;79.60;;;;;;5071498;28;20031;-72
2023/05/28 03:36:05;;;;;;;11.57;5.32;;;13.50;79.90;;;;;;5070999;28;20024;-73
2023/05/28 03:38:31;;;;;;;12.98;6.05;;;13.50;79.90;;;;;;5067601;28;20059;-72
2023/05/28 03:40:57;;;;;;;10.88;5.45;;;13.50;79.80;;;;;;5084205;28;20074;-72
2023/05/28 03:43:22;;;;;;;12.05;5.97;;;13.50;79.80;;;;;;5079400;28;20039;-71
2023/05/28 03:45:48;;;;;;;13.65;6.13;;;13.50;79.80;;;;;;5068730;28;20044;-71
2023/05/28 03:48:13;;;;;;;11.27;5.50;;;13.50;80.00;;;;;;5071462;28;20025;-71
2023/05/28 03:50:39;;;;;;;13.02;6.28;;;13.50;80.60;;;;;;5068066;28;20031;-72
2023/05/28 03:53:05;;;;;;;12.05;5.65;;;13.50;80.00;;;;;;5082326;28;20016;-71
2023/05/28 03:55:32;;;;;;;12.10;5.85;;;13.50;80.10;;;;;;5067401;28;20028;-71
2023/05/28 03:57:58;;;;;;;13.15;5.90;;;13.50;80.40;;;;;;5069143;28;20033;-71
2023/05/28 04:00:23;;;;;;;12.25;5.90;;;13.50;80.40;;;;;;5071021;28;20032;-71
2023/05/28 04:02:49;;;;;;;12.07;5.75;;;13.50;80.40;;;;;;5070993;28;20028;-72
2023/05/28 04:05:15;;;;;;;11.73;5.40;;;13.60;80.40;;;;;;5073221;28;20055;-71
2023/05/28 04:07:40;;;;;;;13.18;6.18;;;13.60;80.30;;;;;;5069572;28;20031;-72
2023/05/28 04:10:06;;;;;;;12.77;5.72;;;13.60;80.20;;;;;;5071515;28;20097;-71
2023/05/28 04:12:32;;;;;;;13.80;6.32;;;13.70;80.30;;;;;;5070540;28;20024;-74
2023/05/28 04:14:59;;;;;;;11.85;5.85;;;13.70;80.90;;;;;;5069447;28;20031;-71
2023/05/28 04:17:25;;;;;;;13.57;6.57;;;13.70;80.10;;;;;;5077420;28;20081;-71
2023/05/28 04:19:53;;;;;;;12.90;6.60;;;13.80;80.80;;;;;;5070856;28;20086;-71
2023/05/28 04:22:18;;;;;;;12.60;6.38;;;13.80;80.70;;;;;;5071188;28;20398;-72
2023/05/28 04:24:45;;;;;;;13.00;5.72;;;13.90;80.40;;;;;;5071791;28;20021;-73
2023/05/28 04:27:11;;;;;;;12.45;5.90;;;13.90;80.10;;;;;;5082622;28;20640;-70
2023/05/28 04:29:36;;;;;;;12.63;6.03;;;13.90;79.90;;;;;;5072426;28;20071;-70
2023/05/28 04:32:04;;;;;;;10.18;5.50;;;13.90;79.80;;;;;;5073754;28;20383;-70
2023/05/28 04:34:32;;;;;;;11.55;6.10;;;13.90;79.80;;;;;;5075002;28;20095;-71
2023/05/28 04:36:58;;;;;;;11.50;5.68;;;13.90;79.90;;;;;;5070855;28;20494;-71
2023/05/28 04:39:24;;;;;;;12.10;5.63;;;13.90;79.80;;;;;;5077082;28;20020;-71
2023/05/28 04:41:50;;;;;;;11.85;5.90;;;13.90;79.70;;;;;;5070054;28;20024;-71
2023/05/28 04:44:17;;;;;;;13.18;5.45;;;13.90;79.70;;;;;;5080692;28;20478;-71
2023/05/28 04:46:45;;;;;;;11.32;5.60;;;13.90;79.70;;;;;;5076591;28;20050;-71
2023/05/28 04:49:12;;;;;;;13.50;6.15;;;13.90;79.70;;;;;;5076775;28;20356;-71
2023/05/28 04:51:38;;;;;;;14.43;6.13;;;13.90;79.80;;;;;;5077429;28;20027;-71
2023/05/28 04:54:04;;;;;;;11.65;6.10;;;13.90;80.00;;;;;;5071003;28;20012;-71
2023/05/28 04:56:29;;;;;;;13.98;6.60;;;13.90;80.00;;;;;;5077939;28;20028;-71
2023/05/28 04:58:55;;;;;;;12.00;6.18;;;13.80;80.20;;;;;;5080524;28;20051;-71
2023/05/28 05:01:22;;;;;;;13.25;6.45;;;13.80;80.30;;;;;;5075466;28;20039;-73
2023/05/28 05:03:48;;;;;;;12.90;6.72;;;13.80;80.40;;;;;;5078471;28;20115;-73
2023/05/28 05:06:13;;;;;;;12.30;6.43;;;13.90;80.30;;;;;;5069561;28;20107;-72
2023/05/28 05:08:39;;;;;;;12.18;5.70;;;14.40;80.20;;;;;;5077203;28;20020;-71
2023/05/28 05:11:06;;;;;;;9.95;5.55;;;15.10;78.20;;;;;;5069026;28;20017;-73
2023/05/28 05:13:32;;;;;;;11.45;5.90;;;15.40;76.20;;;;;;5062850;28;20445;-71
2023/05/28 05:15:57;;;;;;;13.15;6.35;;;15.30;75.70;;;;;;5074340;28;20032;-72
2023/05/28 05:18:23;;;;;;;11.70;5.68;;;15.30;75.70;;;;;;5070918;28;20089;-72
2023/05/28 05:20:49;;;;;;;10.50;5.03;;;15.20;75.90;;;;;;5081335;28;20504;-72
2023/05/28 05:23:15;;;;;;;11.27;5.93;;;15.20;76.30;;;;;;5069568;28;20025;-72
2023/05/28 05:25:40;;;;;;;10.13;5.95;;;15.20;76.20;;;;;;5068593;28;20025;-73
2023/05/28 05:28:06;;;;;;;12.98;5.90;;;15.20;76.30;;;;;;5066719;28;20033;-73
2023/05/28 05:30:31;;;;;;;11.10;5.90;;;15.20;76.20;;;;;;5067875;28;20024;-73
2023/05/28 05:32:57;;;;;;;13.60;5.93;;;15.30;76.00;;;;;;5067232;28;20020;-72
2023/05/28 05:35:23;;;;;;;11.27;5.57;;;15.40;76.50;;;;;;5078617;28;20036;-72
2023/05/28 05:37:48;;;;;;;8.02;4.53;;;15.60;75.50;;;;;;5069697;28;20024;-72
2023/05/28 05:40:14;;;;;;;9.30;5.05;;;16.10;74.90;;;;;;5069913;28;20486;-72
2023/05/28 05:42:40;;;;;;;11.48;5.72;;;16.40;73.40;;;;;;5069481;28;20068;-73
2023/05/28 05:45:06;;;;;;;10.00;5.78;;;17.00;72.30;;;;;;5068321;28;20044;-73
2023/05/28 05:47:31;;;;;;;12.32;5.47;;;17.60;70.10;;;;;;5071654;28;20115;-72
2023/05/28 05:49:57;;;;;;;10.45;5.25;;;17.70;69.40;;;;;;5072794;28;20051;-72
2023/05/28 05:52:23;;;;;;;9.25;5.40;;;17.50;69.40;;;;;;5069358;28;20060;-72
2023/05/28 05:54:49;;;;;;;9.93;4.80;;;17.30;69.60;;;;;;5074834;28;20118;-72
2023/05/28 05:57:17;;;;;;;10.55;5.20;;;17.20;70.00;;;;;;5074915;28;20025;-72
2023/05/28 05:59:43;;;;;;;8.98;4.63;;;17.30;70.00;;;;;;5070346;28;20039;-73
2023/05/28 06:02:08;;;;;;;11.30;5.30;;;17.30;69.90;;;;;;5069132;28;20036;-73
2023/05/28 06:04:34;;;;;;;12.00;5.53;;;17.40;69.80;;;;;;5081723;28;20029;-73
2023/05/28 06:07:06;;;;;;;8.88;4.97;;;17.40;69.70;;;;;;5074163;28;20403;-72
2023/05/28 06:09:35;;;;;;;13.90;6.00;;;17.30;70.00;;;;;;5070249;28;20023;-70
2023/05/28 06:12:01;;;;;;;9.90;5.53;;;17.60;69.50;;;;;;5082480;28;20024;-71
2023/05/28 06:14:27;;;;;;;11.38;5.60;;;17.80;69.10;;;;;;5081306;28;20029;-72
2023/05/28 06:16:53;;;;;;;9.32;4.95;;;17.80;68.70;;;;;;5078544;28;20459;-72
2023/05/28 06:19:19;;;;;;;8.15;4.25;;;17.80;68.70;;;;;;5081529;28;20028;-73
2023/05/28 06:21:45;;;;;;;8.60;4.50;;;17.70;68.80;;;;;;5073133;28;20050;-71
2023/05/28 06:24:10;;;;;;;9.32;4.35;;;17.70;68.80;;;;;;5073653;28;20028;-71
2023/05/28 06:26:36;;;;;;;9.93;4.63;;;17.50;69.10;;;;;;5076557;28;20681;-71
2023/05/28 06:29:01;;;;;;;8.23;4.50;;;17.50;69.30;;;;;;5083611;28;20039;-71
2023/05/28 06:31:27;;;;;;;9.43;4.85;;;17.40;69.70;;;;;;5073576;28;20409;-71
2023/05/28 06:33:53;;;;;;;9.32;5.05;;;17.30;70.00;;;;;;5073574;28;20028;-70
2023/05/28 06:36:18;;;;;;;9.57;5.05;;;17.20;70.30;;;;;;5072494;28;20384;-71
2023/05/28 06:38:44;;;;;;;8.18;4.85;;;17.20;70.50;;;;;;5077886;28;20035;-72
2023/05/28 06:41:10;;;;;;;8.85;4.57;;;17.20;70.60;;;;;;5073189;28;20445;-72
2023/05/28 06:43:37;;;;;;;10.25;5.28;;;17.10;70.50;;;;;;5070582;28;20025;-72
2023/05/28 06:46:03;;;;;;;8.55;4.65;;;17.10;70.70;;;;;;5071820;28;20028;-72
2023/05/28 06:48:28;;;;;;;9.82;4.75;;;17.00;70.80;;;;;;5072463;28;20104;-73
2023/05/28 06:50:56;;;;;;;9.77;5.10;;;17.00;70.90;;;;;;5071552;28;20028;-73
2023/05/28 06:53:21;;;;;;;11.65;4.95;;;17.10;70.90;;;;;;5073189;28;20024;-72
2023/05/28 06:55:47;;;;;;;10.27;5.03;;;17.20;71.00;;;;;;5071476;28;20066;-72
2023/05/28 06:58:12;;;;;;;11.10;4.88;;;17.50;70.70;;;;;;5072398;28;20028;-72
2023/05/28 07:00:38;;;;;;;9.95;4.70;;;17.80;70.10;;;;;;5068986;28;20033;-72
2023/05/28 07:03:03;;;;;;;8.20;4.72;;;18.10;69.50;;;;;;5074365;28;20025;-72
2023/05/28 07:05:29;;;;;;;11.57;5.00;;;18.30;68.90;;;;;;5070731;28;20082;-72
2023/05/28 07:07:55;;;;;;;11.43;4.90;;;18.60;68.20;;;;;;5071349;28;20388;-72
2023/05/28 07:10:21;;;;;;;10.40;4.93;;;18.90;67.50;;;;;;5071744;28;20086;-71
2023/05/28 07:12:46;;;;;;;8.65;4.60;;;19.20;66.70;;;;;;5063590;28;20557;-70
2023/05/28 07:15:12;;;;;;;8.23;4.13;;;19.40;66.00;;;;;;5072068;28;20040;-72
2023/05/28 07:17:37;;;;;;;8.23;4.20;;;19.60;65.30;;;;;;5072335;28;20449;-72
2023/05/28 07:20:05;;;;;;;8.52;4.28;;;19.80;64.60;;;;;;5074593;28;20024;-71
2023/05/28 07:22:31;;;;;;;8.02;4.35;;;19.90;63.60;;;;;;5068201;28;20025;-70
2023/05/28 07:24:57;;;;;;;9.02;4.55;;;20.10;62.90;;;;;;5070995;28;20881;-73
2023/05/28 07:27:22;;;;;;;7.93;4.30;;;20.20;62.10;;;;;;5072606;28;20024;-73
2023/05/28 07:29:48;;;;;;;10.25;4.50;;;20.30;61.70;;;;;;5071006;28;20028;-72
2023/05/28 07:32:13;;;;;;;8.05;4.22;;;20.50;60.80;;;;;;5075400;28;20017;-72
2023/05/28 07:34:40;;;;;;;8.20;4.07;;;20.60;60.20;;;;;;5074420;28;20046;-71
2023/05/28 07:37:06;;;;;;;9.10;4.10;;;20.70;59.50;;;;;;5071627;28;20112;-71
2023/05/28 07:39:31;;;;;;;9.05;3.97;;;20.80;59.40;;;;;;5071477;28;20194;-72
2023/05/28 07:41:57;;;;;;;7.72;3.75;;;20.90;58.90;;;;;;5070551;28;20040;-72
2023/05/28 07:44:22;;;;;;;6.53;3.40;;;21.10;58.60;;;;;;5069532;28;20024;-72
2023/05/28 07:46:48;;;;;;;6.82;3.13;;;21.30;58.10;;;;;;5070140;28;20470;-72
2023/05/28 07:49:14;;;;;;;8.90;3.78;;;21.40;57.80;;;;;;5072830;28;20027;-72
2023/05/28 07:51:40;;;;;;;7.05;3.35;;;21.40;57.30;;;;;;5071146;28;20482;-72
2023/05/28 07:54:05;;;;;;;7.07;3.65;;;21.60;57.00;;;;;;5074533;28;20394;-73
2023/05/28 07:56:31;;;;;;;8.88;4.10;;;21.70;56.40;;;;;;5067697;28;20021;-72
2023/05/28 07:58:56;;;;;;;10.27;3.88;;;21.50;55.20;;;;;;5074677;28;20027;-71
2023/05/28 08:01:23;;;;;;;7.68;3.33;;;21.50;55.40;;;;;;5071818;28;20034;-71
2023/05/28 08:03:51;;;;;;;8.07;3.92;;;21.60;55.90;;;;;;5067059;28;20031;-72
2023/05/28 08:06:18;;;;;;;9.57;3.80;;;21.70;55.70;;;;;;5069074;28;20111;-72
2023/05/28 08:08:43;;;;;;;8.23;3.85;;;21.60;54.90;;;;;;5068802;28;20031;-72
2023/05/28 08:11:10;;;;;;;8.85;3.70;;;21.70;54.80;;;;;;5068270;28;20099;-71
2023/05/28 08:13:36;;;;;;;8.35;3.40;;;21.80;54.70;;;;;;5070629;28;20774;-72
2023/05/28 08:16:02;;;;;;;9.32;4.22;;;22.00;54.40;;;;;;5069243;28;20020;-72
2023/05/28 08:18:28;;;;;;;9.35;3.67;;;22.00;52.80;;;;;;5068861;28;20074;-70
2023/05/28 08:20:54;;;;;;;6.93;3.50;;;21.80;53.10;;;;;;5067543;28;20056;-71
2023/05/28 08:23:19;;;;;;;8.68;3.67;;;21.90;54.00;;;;;;5069861;28;20032;-71
2023/05/28 08:25:45;;;;;;;8.40;3.95;;;22.00;54.20;;;;;;5065778;28;20109;-71
2023/05/28 08:28:10;;;;;;;10.10;4.30;;;22.00;54.00;;;;;;5070725;28;20025;-71
2023/05/28 08:30:36;;;;;;;7.18;3.50;;;21.90;53.00;;;;;;5066576;28;20032;-75
2023/05/28 08:33:02;;;;;;;8.10;3.63;;;21.90;54.00;;;;;;5067707;28;20020;-71
2023/05/28 08:35:27;;;;;;;7.97;3.33;;;22.10;54.10;;;;;;5071559;28;20035;-71
2023/05/28 08:37:53;;;;;;;8.68;3.50;;;22.30;53.80;;;;;;5068525;28;20448;-71
2023/05/28 08:40:19;;;;;;;7.13;3.35;;;22.50;53.60;;;;;;5070094;28;20546;-71
2023/05/28 08:42:45;;;;;;;8.02;3.65;;;22.70;53.30;;;;;;5070756;28;20024;-71
2023/05/28 08:45:13;;;;;;;7.28;3.63;;;22.80;52.40;;;;;;5067304;28;20285;-71
2023/05/28 08:47:40;;;;;;;10.77;4.20;;;22.80;52.00;;;;;;5066498;28;20035;-72
2023/05/28 08:50:06;;;;;;;7.43;3.58;;;22.60;51.20;;;;;;5069668;28;20016;-71
2023/05/28 08:52:33;;;;;;;7.13;3.53;;;22.60;51.70;;;;;;5068648;28;20136;-72
2023/05/28 08:55:00;;;;;;;7.32;3.65;;;22.70;52.00;;;;;;5069145;28;20668;-72
2023/05/28 08:57:27;;;;;;;7.65;3.95;;;22.80;51.90;;;;;;5070051;28;20028;-69
2023/05/28 08:59:54;;;;;;;7.30;3.42;;;23.00;51.80;;;;;;5065253;28;20058;-71
2023/05/28 09:02:23;;;;;;;7.40;3.13;;;23.10;51.50;;;;;;5065787;28;20036;-71
2023/05/28 09:04:50;;;;;;;7.60;3.92;;;23.10;51.00;;;;;;5068138;28;20615;-75
2023/05/28 09:07:15;;;;;;;8.50;3.80;;;23.00;50.70;;;;;;5070728;28;20024;-71
2023/05/28 09:09:42;;;;;;;7.30;3.92;;;22.80;50.10;;;;;;5068175;28;20024;-71
2023/05/28 09:12:12;;;;;;;6.97;3.30;;;22.70;50.40;;;;;;5068802;28;20029;-72
2023/05/28 09:14:41;;;;;;;9.77;4.13;;;22.70;51.00;;;;;;5069344;28;20020;-72
2023/05/28 09:17:08;;;;;;;8.57;3.53;;;22.80;50.70;;;;;;5068489;28;20375;-71
2023/05/28 09:19:37;;;;;;;8.23;3.63;;;22.90;50.80;;;;;;5067301;28;20038;-73
2023/05/28 09:22:03;;;;;;;8.55;3.40;;;23.10;50.40;;;;;;5062823;28;20394;-72
2023/05/28 09:24:33;;;;;;;8.45;3.60;;;23.20;50.20;;;;;;5067757;28;20121;-72
2023/05/28 09:26:59;;;;;;;9.18;3.63;;;23.30;49.40;;;;;;5066402;28;20028;-71
2023/05/28 09:29:25;;;;;;;7.88;3.67;;;23.10;49.30;;;;;;5071590;28;20024;-73
2023/05/28 09:31:56;;;;;;;8.48;3.83;;;23.30;49.10;;;;;;5065726;28;20024;-71
2023/05/28 09:34:26;;;;;;;8.02;3.47;;;23.50;48.60;;;;;;5067171;28;20054;-72
2023/05/28 09:36:52;;;;;;;9.40;3.92;;;23.30;47.20;;;;;;5067512;28;20391;-72
2023/05/28 09:39:18;;;;;;;6.95;3.50;;;23.10;48.00;;;;;;5068186;28;20030;-71
2023/05/28 09:41:46;;;;;;;7.80;3.25;;;23.20;48.10;;;;;;5068503;28;20025;-71
2023/05/28 09:44:12;;;;;;;7.53;3.58;;;23.30;48.20;;;;;;5068716;28;20024;-72
2023/05/28 09:46:38;;;;;;;7.85;4.00;;;23.30;48.60;;;;;;5068457;28;20170;-72
2023/05/28 09:49:04;;;;;;;10.65;4.50;;;23.50;48.70;;;;;;5067437;28;20107;-72
2023/05/28 09:51:33;;;;;;;6.68;3.65;;;23.40;49.20;;;;;;5067192;28;20024;-72
2023/05/28 09:54:01;;;;;;;9.43;4.15;;;23.40;49.10;;;;;;5068854;28;20498;-73
2023/05/28 09:56:31;;;;;;;7.78;4.00;;;23.50;49.10;;;;;;5068340;28;20107;-72
2023/05/28 09:58:59;;;;;;;10.82;4.50;;;23.50;49.40;;;;;;5067225;28;20491;-71
2023/05/28 10:01:30;;;;;;;9.63;4.18;;;23.60;49.40;;;;;;5067153;28;20036;-72
2023/05/28 10:04:03;;;;;;;7.45;3.83;;;23.50;49.80;;;;;;5065933;28;20759;-72
2023/05/28 10:06:32;;;;;;;8.05;3.53;;;23.40;49.70;;;;;;5069117;28;20058;-73
2023/05/28 10:08:59;;;;;;;9.30;3.95;;;23.30;49.80;;;;;;5068951;28;20102;-72
2023/05/28 10:11:27;;;;;;;8.73;4.63;;;23.30;49.90;;;;;;5068778;28;20052;-72
2023/05/28 10:13:54;;;;;;;9.95;4.22;;;23.10;50.40;;;;;;5069896;28;20028;-71
2023/05/28 10:16:20;;;;;;;9.90;4.25;;;23.00;50.20;;;;;;5069198;28;20475;-72
2023/05/28 10:18:46;;;;;;;8.50;4.43;;;22.80;50.90;;;;;;5066722;28;20066;-72
2023/05/28 10:21:15;;;;;;;8.20;3.83;;;22.80;51.10;;;;;;5064702;28;20106;-73
2023/05/28 10:23:42;;;;;;;8.85;3.80;;;23.00;51.10;;;;;;5067928;28;20032;-73
2023/05/28 10:26:09;;;;;;;5.70;3.30;;;23.10;50.80;;;;;;5069010;28;20323;-72
2023/05/28 10:28:35;;;;;;;9.02;3.65;;;23.30;50.70;;;;;;5068884;28;20372;-72
2023/05/28 10:31:07;;;;;;;8.90;3.45;;;23.50;50.40;;;;;;5068459;28;20028;-72
2023/05/28 10:33:43;;;;;;;10.18;3.90;;;23.80;50.10;;;;;;5067565;28;20064;-71
2023/05/28 10:36:11;;;;;;;7.50;3.65;;;23.80;48.70;;;;;;5066026;28;20082;-71
2023/05/28 10:38:59;;;;;;;8.95;4.32;;;24.00;48.80;;;;;;5067570;28;20028;-71
2023/05/28 10:41:25;;;;;;;8.50;3.80;;;24.10;48.40;;;;;;5066785;28;20502;-72
2023/05/28 10:43:51;;;;;;;8.88;3.78;;;24.20;48.50;;;;;;5067929;28;20028;-71
2023/05/28 10:46:34;;;;;;;5.35;3.35;;;24.20;48.40;;;;;;5067248;28;20215;-71
2023/05/28 10:49:20;;;;;;;7.50;3.58;;;24.20;48.40;;;;;;5065211;28;20027;-72
2023/05/28 10:52:00;;;;;;;8.15;4.13;;;24.00;47.80;;;;;;5065999;28;20383;-71
2023/05/28 10:54:45;;;;;;;7.20;3.53;;;23.70;47.80;;;;;;5066540;28;20017;-72
2023/05/28 10:57:21;;;;;;;7.97;4.15;;;23.70;48.10;;;;;;5065688;28;20048;-70
2023/05/28 10:59:59;;;;;;;7.90;3.40;;;23.60;46.80;;;;;;5070643;28;20036;-71
2023/05/28 11:02:32;;;;;;;8.80;3.50;;;23.50;47.80;;;;;;5071054;28;20071;-71
2023/05/28 11:05:00;;;;;;;6.85;3.50;;;23.60;48.40;;;;;;5067611;28;20128;-71
2023/05/28 11:07:32;;;;;;;9.05;3.85;;;23.80;48.40;;;;;;5069913;28;20020;-71
2023/05/28 11:09:58;;;;;;;6.30;3.05;;;23.80;48.20;;;;;;5069324;28;20028;-71
2023/05/28 11:12:30;;;;;;;8.27;4.05;;;24.00;48.20;;;;;;5068378;28;20027;-71
2023/05/28 11:14:55;;;;;;;9.77;3.50;;;23.90;48.00;;;;;;5070023;28;20063;-70
2023/05/28 11:17:22;;;;;;;9.05;4.07;;;24.00;48.10;;;;;;5070895;28;20608;-71
2023/05/28 11:19:49;;;;;;;6.10;3.20;;;24.00;48.00;;;;;;5070880;28;20028;-71
2023/05/28 11:22:17;;;;;;;8.52;3.72;;;24.20;48.10;;;;;;5069749;28;20050;-71
2023/05/28 11:24:59;;;;;;;9.80;3.70;;;24.00;47.80;;;;;;5070699;28;20108;-70
2023/05/28 11:27:27;;;;;;;;;;;24.00;48.10;;;;;;5071483;28;20035;-71
2023/05/28 11:29:55;;;;;;;7.45;3.20;;;23.90;48.10;;;;;;5070459;28;19912;-71
2023/05/28 11:32:21;;;;;;;8.05;3.38;;;24.00;47.90;;;;;;5070519;28;20483;-71
2023/05/28 11:34:51;;;;;;;8.20;3.13;;;24.30;47.20;;;;;;5070430;28;20031;-71
2023/05/28 11:37:24;;;;;;;7.50;3.60;;;24.30;46.70;;;;;;5071022;28;20483;-69
2023/05/28 11:39:51;;;;;;;8.02;3.30;;;24.30;45.80;;;;;;5070243;28;20052;-71
2023/05/28 11:42:20;;;;;;;8.05;3.53;;;24.20;45.90;;;;;;5070135;28;20539;-71
2023/05/28 11:44:47;;;;;;;6.57;3.22;;;24.30;46.00;;;;;;5070691;28;20025;-72
2023/05/28 11:47:13;;;;;;;6.65;3.42;;;24.60;46.00;;;;;;5070938;28;20099;-71
2023/05/28 11:49:40;;;;;;;8.55;3.60;;;24.70;45.20;;;;;;5070172;28;20031;-70
2023/05/28 11:52:13;;;;;;;9.15;4.05;;;24.50;44.60;;;;;;5070706;28;20056;-70
2023/05/28 11:54:41;;;;;;;7.93;3.53;;;24.40;45.00;;;;;;5070400;28;20858;-71
2023/05/28 11:57:07;;;;;;;9.90;3.70;;;24.20;45.50;;;;;;5070798;28;20024;-71
2023/05/28 11:59:34;;;;;;;6.47;3.40;;;24.20;45.80;;;;;;5070174;28;20035;-73
2023/05/28 12:02:18;;;;;;;8.98;3.22;;;24.40;45.40;;;;;;5070622;28;20379;-72
2023/05/28 12:04:57;;;;;;;7.30;3.88;;;24.60;44.60;;;;;;5068799;28;20024;-72
2023/05/28 12:07:33;;;;;;;8.05;4.03;;;24.60;44.50;;;;;;5069550;28;20021;-72
2023/05/28 12:10:20;;;;;;;7.57;3.38;;;24.50;44.20;;;;;;5068688;28;20077;-71
2023/05/28 12:12:51;;;;;;;7.80;3.83;;;24.80;45.00;;;;;;5068311;28;20621;-71
2023/05/28 12:15:18;;;;;;;5.75;3.10;;;24.80;44.60;;;;;;5069838;28;20471;-71
2023/05/28 12:17:46;;;;;;;6.15;3.20;;;25.00;44.90;;;;;;5066268;28;20505;-72
2023/05/28 12:20:12;;;;;;;5.72;3.47;;;25.10;44.50;;;;;;5069581;28;20506;-71
2023/05/28 12:22:41;;;;;;;5.63;3.13;;;25.10;44.30;;;;;;5068854;28;20067;-72
2023/05/28 12:25:07;;;;;;;5.88;3.15;;;25.20;44.10;;;;;;5068200;28;20074;-71
2023/05/28 12:27:33;;;;;;;8.00;3.28;;;25.30;44.00;;;;;;5069609;28;20031;-71
2023/05/28 12:29:59;;;;;;;5.78;3.00;;;25.20;43.80;;;;;;5099171;28;20095;-72
2023/05/28 12:32:24;;;;;;;6.65;3.40;;;25.30;43.90;;;;;;5069015;28;20024;-72
2023/05/28 12:34:51;;;;;;;5.70;3.13;;;25.40;43.40;;;;;;5068390;28;20669;-72
2023/05/28 12:37:18;;;;;;;7.80;3.78;;;25.40;43.10;;;;;;5069885;28;20055;-72
2023/05/28 12:39:43;;;;;;;8.80;3.60;;;25.30;42.40;;;;;;5068838;28;20033;-71
2023/05/28 12:42:09;;;;;;;5.60;2.90;;;25.20;42.40;;;;;;5067881;28;20013;-71